Capitol Logistics 220


KRIV
March Air Reserve Base
Riverside, California, US
KSEA
Seattle-Tacoma International Airport
Seattle, Washington, US

Activity Log

Date Flight Route Aircraft Duration
05/29/2020 CPX220 SLI J78 LAX J1 AVE J189 LMT HAWKZ7 B763 2h 20m
04/14/2020 CPX220 SKYES4 OCN J1 LAX J5 LKV HAWKZ7 B763 3h 06m
07/21/2019 CPX220 KRIV/32 SLI J78 LAX J1 AVE J189 LMT HAWKZ7 KSEA/34R B763 2h 14m
02/14/2019 CPX220 SKYES3 OCN J1 AVE J189 LMT HAWKZ7 B763 2h 25m
01/14/2019 CPX220 SLI J78 LAX J1 AVE J189 LMT HAWKZ7 B763 2h 27m

Route Details

Aircraft Information
Primary: Boeing 767-300BDSF
Backup: Not Available
Route Data
Distance: 833nm
Sched. Duration: 2h 29m
Avg. Duration: 2h 38m (+9m)
Times Flown: 5
Recm'd Route: SLI J78 LAX J1 AVE J189 LMT HAWKZ7
Planned Altitude: 36,000ft
Origin Wx: KRIV 260558Z AUTO 31006KT 10SM FEW040 BKN060 13/09 A2991 RMK AO2 SLP123 T01280092 10178 20128 53011 $
Dest. Wx: KSEA 260553Z 04008KT 10SM CLR 04/M02 A3052 RMK AO2 SLP346 T00391022 10083 20033 58003 $
Notes:

Financial History
Total Freight: 474,472lbs
Average Load: 94,894lbs/flt
Fuel Used: 138,718lbs
Avg. Fuel Used: 27,744lbs/flt
Fuel Expense: $95,715
Avg. Fuel Expense: $19,143
Avg. Fuel Cost: $0.69/lbs
Total Gross Income: $638,269
Pilot Pay: $965
Total Expenses: $69,193
Total Revenue: $470,668
Average Revenue: $127,653.84